createdAt,value
2023-02-14T00:01:21.762Z,32.85
2023-02-14T00:03:50.175Z,33.95
2023-02-14T00:06:18.301Z,31.75
2023-02-14T00:08:46.058Z,33.08
2023-02-14T00:11:15.265Z,30.30
2023-02-14T00:14:04.003Z,31.00
2023-02-14T00:16:32.467Z,30.77
2023-02-14T00:19:06.248Z,29.30
2023-02-14T00:21:36.552Z,27.75
2023-02-14T00:24:04.479Z,25.50
2023-02-14T00:26:32.343Z,21.58
2023-02-14T00:29:00.258Z,22.35
2023-02-14T00:31:28.204Z,25.50
2023-02-14T00:33:58.185Z,22.60
2023-02-14T00:36:26.004Z,20.20
2023-02-14T00:38:54.161Z,21.15
2023-02-14T00:41:22.123Z,22.30
2023-02-14T00:43:54.391Z,21.33
2023-02-14T00:46:24.486Z,25.27
2023-02-14T00:48:53.279Z,28.23
2023-02-14T00:51:23.209Z,29.05
2023-02-14T00:53:52.146Z,28.55
2023-02-14T00:56:21.058Z,31.85
2023-02-14T00:58:49.491Z,46.58
2023-02-14T01:01:19.717Z,67.50
2023-02-14T01:03:47.663Z,45.88
2023-02-14T01:06:15.827Z,35.70
2023-02-14T01:08:44.963Z,39.40
2023-02-14T01:11:15.639Z,45.03
2023-02-14T01:13:44.851Z,63.45
2023-02-14T01:16:14.944Z,43.42
2023-02-14T01:18:43.866Z,56.88
2023-02-14T01:21:14.598Z,45.90
2023-02-14T01:23:43.106Z,47.30
2023-02-14T01:26:13.443Z,50.28
2023-02-14T01:28:42.296Z,63.35
2023-02-14T01:31:12.521Z,46.83
2023-02-14T01:33:41.916Z,44.63
2023-02-14T01:36:16.411Z,42.08
2023-02-14T01:38:44.568Z,39.80
2023-02-14T01:41:14.253Z,36.92
2023-02-14T01:43:57.609Z,54.50
2023-02-14T01:46:26.589Z,58.15
2023-02-14T01:48:56.900Z,43.05
2023-02-14T01:51:25.811Z,56.75
2023-02-14T01:53:55.494Z,58.80
2023-02-14T01:56:30.099Z,54.25
2023-02-14T01:59:02.075Z,40.72
2023-02-14T02:01:31.039Z,64.20
2023-02-14T02:04:05.416Z,61.47
2023-02-14T02:06:38.801Z,47.88
2023-02-14T02:09:15.584Z,45.45
2023-02-14T02:11:44.989Z,49.78
2023-02-14T02:14:16.000Z,49.70
2023-02-14T02:16:56.553Z,52.78
2023-02-14T02:19:52.994Z,60.78
2023-02-14T02:22:51.235Z,71.50
2023-02-14T02:25:40.257Z,63.95
2023-02-14T02:28:33.324Z,54.28
2023-02-14T02:31:22.517Z,46.90
2023-02-14T02:36:47.518Z,50.08
2023-02-14T02:39:30.107Z,36.35
2023-02-14T02:42:07.314Z,57.92
2023-02-14T02:44:47.166Z,46.50
2023-02-14T02:47:23.469Z,53.22
2023-02-14T02:50:17.212Z,39.28
2023-02-14T02:53:06.344Z,46.75
2023-02-14T02:56:02.461Z,44.90
2023-02-14T02:58:36.549Z,43.95
2023-02-14T03:01:10.609Z,44.58
2023-02-14T03:03:58.612Z,35.83
2023-02-14T03:06:26.453Z,31.98
2023-02-14T03:08:55.591Z,38.03
2023-02-14T03:11:26.020Z,36.58
2023-02-14T03:14:09.756Z,37.88
2023-02-14T03:16:49.901Z,64.85
2023-02-14T03:19:49.599Z,54.80
2023-02-14T03:22:27.589Z,61.80
2023-02-14T03:25:05.733Z,48.08
2023-02-14T03:27:39.977Z,52.97
2023-02-14T03:30:15.742Z,60.25
2023-02-14T03:32:49.416Z,44.05
2023-02-14T03:35:24.984Z,55.47
2023-02-14T03:38:00.762Z,38.25
2023-02-14T03:40:35.185Z,47.92
2023-02-14T03:43:08.423Z,34.53
2023-02-14T03:45:41.524Z,54.60
2023-02-14T03:48:13.913Z,37.65
2023-02-14T03:50:45.307Z,36.63
2023-02-14T03:55:48.595Z,45.97
2023-02-14T03:58:22.395Z,44.42
2023-02-14T04:00:54.008Z,46.17
2023-02-14T04:03:25.047Z,37.50
2023-02-14T04:05:52.987Z,44.75
2023-02-14T04:08:26.212Z,40.67
2023-02-14T04:10:58.881Z,49.90
2023-02-14T04:13:27.402Z,44.83
2023-02-14T04:15:55.316Z,43.40
2023-02-14T04:18:41.124Z,44.05
2023-02-14T04:21:08.887Z,38.95
2023-02-14T04:23:36.715Z,33.75
2023-02-14T04:26:06.081Z,37.42
2023-02-14T04:28:34.514Z,31.17
2023-02-14T04:31:03.518Z,50.25
2023-02-14T04:33:32.252Z,33.53
2023-02-14T04:36:00.155Z,37.78
2023-02-14T04:38:28.018Z,37.35
2023-02-14T04:40:55.871Z,36.22
2023-02-14T04:43:25.192Z,34.13
2023-02-14T04:45:52.975Z,37.15
2023-02-14T04:48:20.755Z,48.25
2023-02-14T04:50:53.502Z,37.17
2023-02-14T04:53:21.391Z,49.92
2023-02-14T04:55:50.147Z,39.13
2023-02-14T04:58:18.078Z,38.28
2023-02-14T05:00:47.262Z,37.58
2023-02-14T05:03:15.158Z,35.63
2023-02-14T05:05:42.899Z,43.83
2023-02-14T05:08:10.697Z,40.75
2023-02-14T05:10:38.445Z,30.90
2023-02-14T05:13:06.270Z,31.60
2023-02-14T05:15:35.097Z,31.38
2023-02-14T05:18:05.758Z,29.60
2023-02-14T05:20:33.631Z,30.58
2023-02-14T05:23:03.422Z,40.25
2023-02-14T05:25:31.406Z,34.33
2023-02-14T05:28:00.315Z,32.45
2023-02-14T05:30:28.976Z,34.00
2023-02-14T05:32:56.853Z,43.70
2023-02-14T05:35:26.004Z,33.08
2023-02-14T05:37:53.833Z,57.15
2023-02-14T05:42:49.648Z,38.00
2023-02-14T05:45:17.424Z,61.55
2023-02-14T05:47:45.477Z,40.28
2023-02-14T05:50:13.317Z,58.42
2023-02-14T05:52:42.808Z,38.28
2023-02-14T05:55:11.499Z,36.47
2023-02-14T05:57:39.271Z,59.05
2023-02-14T06:00:08.744Z,41.25
2023-02-14T06:02:42.383Z,42.47
2023-02-14T06:05:10.271Z,52.60
2023-02-14T06:07:38.111Z,35.10
2023-02-14T06:10:09.938Z,46.25
2023-02-14T06:12:37.740Z,52.63
2023-02-14T06:15:06.218Z,43.40
2023-02-14T06:17:34.377Z,66.40
2023-02-14T06:20:02.138Z,64.35
2023-02-14T06:22:30.767Z,61.38
2023-02-14T06:24:58.653Z,60.47
2023-02-14T06:27:27.859Z,51.10
2023-02-14T06:29:55.621Z,44.22
2023-02-14T06:32:23.499Z,49.38
2023-02-14T06:34:51.385Z,58.75
2023-02-14T06:37:20.109Z,53.67
2023-02-14T06:39:47.897Z,61.85
2023-02-14T06:42:15.741Z,42.70
2023-02-14T06:44:44.881Z,41.17
2023-02-14T06:55:43.768Z,61.65
2023-02-14T06:58:48.794Z,60.38
2023-02-14T07:01:17.958Z,54.40
2023-02-14T07:03:46.020Z,54.08
2023-02-14T07:06:13.833Z,63.20
2023-02-14T07:08:42.332Z,39.42
2023-02-14T07:11:10.244Z,66.15
2023-02-14T07:13:38.053Z,62.88
2023-02-14T07:16:06.252Z,57.17
2023-02-14T07:18:35.483Z,48.75
2023-02-14T07:21:03.505Z,50.28
2023-02-14T07:23:31.474Z,40.15
2023-02-14T07:26:01.523Z,49.58
2023-02-14T07:28:30.705Z,58.85
2023-02-14T07:31:03.716Z,55.42
2023-02-14T07:33:33.336Z,58.55
2023-02-14T07:36:06.067Z,62.38
2023-02-14T07:38:34.149Z,52.45
2023-02-14T07:41:02.306Z,51.70
2023-02-14T07:43:30.182Z,79.75
2023-02-14T07:45:58.022Z,86.30
2023-02-14T07:48:26.141Z,85.18
2023-02-14T07:50:56.515Z,81.07
2023-02-14T07:53:26.306Z,88.15
2023-02-14T07:55:54.271Z,77.00
2023-02-14T07:58:22.124Z,94.55
2023-02-14T08:00:51.120Z,120.15
2023-02-14T08:03:20.275Z,66.30
2023-02-14T08:05:57.019Z,64.60
2023-02-14T08:08:28.641Z,79.00
2023-02-14T08:10:56.462Z,64.40
2023-02-14T08:13:24.260Z,62.80
2023-02-14T08:16:07.677Z,69.07
2023-02-14T08:18:37.683Z,44.70
2023-02-14T08:21:07.748Z,74.72
2023-02-14T08:23:37.906Z,37.83
2023-02-14T08:26:06.002Z,37.30
2023-02-14T08:28:34.897Z,31.17
2023-02-14T08:31:04.096Z,32.20
2023-02-14T08:33:32.056Z,33.63
2023-02-14T08:36:00.234Z,32.30
2023-02-14T08:38:28.122Z,32.88
2023-02-14T08:41:01.356Z,34.55
2023-02-14T08:43:29.541Z,30.55
2023-02-14T08:45:57.374Z,29.55
2023-02-14T08:48:26.758Z,31.13
2023-02-14T08:50:54.541Z,33.45
2023-02-14T08:53:22.692Z,37.47
2023-02-14T08:55:50.714Z,35.38
2023-02-14T08:58:20.122Z,36.90
2023-02-14T09:00:48.008Z,35.08
2023-02-14T09:03:15.852Z,36.33
2023-02-14T09:05:43.668Z,37.50
2023-02-14T09:08:11.447Z,41.33
2023-02-14T09:10:39.700Z,41.38
2023-02-14T09:13:07.477Z,42.15
2023-02-14T09:15:36.693Z,39.90
2023-02-14T09:18:04.591Z,40.95
2023-02-14T09:20:32.753Z,42.85
2023-02-14T09:23:00.794Z,44.53
2023-02-14T09:25:28.606Z,44.83
2023-02-14T09:27:56.395Z,43.40
2023-02-14T09:30:24.264Z,43.90
2023-02-14T09:32:54.561Z,45.10
2023-02-14T09:35:40.214Z,44.85
2023-02-14T09:38:08.032Z,41.30
2023-02-14T09:40:36.018Z,46.55
2023-02-14T09:43:10.828Z,42.40
2023-02-14T09:45:40.479Z,41.33
2023-02-14T09:48:19.953Z,40.35
2023-02-14T09:50:51.085Z,43.88
2023-02-14T09:55:57.297Z,40.05
2023-02-14T09:58:30.977Z,39.72
2023-02-14T10:01:06.205Z,39.13
2023-02-14T10:03:52.638Z,40.83
2023-02-14T10:06:37.341Z,42.45
2023-02-14T10:09:15.137Z,38.03
2023-02-14T10:11:46.471Z,41.83
2023-02-14T10:14:18.212Z,35.85
2023-02-14T10:16:50.050Z,34.53
2023-02-14T10:19:24.726Z,34.95
2023-02-14T10:21:55.712Z,34.03
2023-02-14T10:24:28.765Z,36.72
2023-02-14T10:29:47.389Z,35.10
2023-02-14T10:32:20.726Z,34.22
2023-02-14T10:34:52.208Z,35.40
2023-02-14T10:37:31.269Z,33.75
2023-02-14T10:40:17.309Z,33.80
2023-02-14T10:42:57.860Z,32.75
2023-02-14T10:45:34.890Z,33.70
2023-02-14T10:50:46.652Z,32.75
2023-02-14T10:53:20.512Z,34.88
2023-02-14T10:55:54.969Z,33.22
2023-02-14T10:58:24.384Z,31.33
2023-02-14T11:00:59.310Z,31.75
2023-02-14T11:03:29.698Z,30.38
2023-02-14T11:05:58.860Z,35.95
2023-02-14T11:08:29.781Z,32.47
2023-02-14T11:11:04.282Z,35.92
2023-02-14T11:13:35.496Z,31.60
2023-02-14T11:16:07.092Z,31.42
2023-02-14T11:18:36.807Z,32.60
2023-02-14T11:21:09.229Z,33.65
2023-02-14T11:23:42.169Z,30.20
2023-02-14T11:26:17.366Z,31.52
2023-02-14T11:28:53.830Z,30.13
2023-02-14T11:31:33.544Z,30.92
2023-02-14T11:34:04.984Z,32.35
2023-02-14T11:36:42.073Z,31.02
2023-02-14T11:41:51.923Z,32.38
2023-02-14T11:44:23.501Z,30.80
2023-02-14T11:46:54.111Z,31.13
2023-02-14T11:49:29.141Z,29.17
2023-02-14T11:51:59.920Z,32.30
2023-02-14T11:54:35.947Z,28.17
2023-02-14T11:57:07.461Z,32.20
2023-02-14T11:59:41.818Z,30.45
2023-02-14T12:02:25.564Z,32.20
2023-02-14T12:04:56.981Z,30.30
2023-02-14T12:07:30.800Z,33.28
2023-02-14T12:10:23.380Z,30.75
2023-02-14T12:12:53.796Z,30.90
2023-02-14T12:15:37.803Z,29.50
2023-02-14T12:18:41.133Z,30.98
2023-02-14T12:21:22.130Z,28.85
2023-02-14T12:24:01.948Z,30.23
2023-02-14T12:26:34.456Z,30.17
2023-02-14T12:29:10.899Z,33.58
2023-02-14T12:31:38.800Z,31.15
2023-02-14T12:34:07.430Z,31.85
2023-02-14T12:36:45.795Z,30.50
2023-02-14T12:39:21.902Z,30.67
2023-02-14T12:42:02.745Z,27.77
2023-02-14T12:44:40.911Z,30.05
2023-02-14T12:47:19.923Z,29.42
2023-02-14T12:50:23.441Z,29.58
2023-02-14T12:53:28.154Z,32.78
2023-02-14T12:56:07.534Z,27.15
2023-02-14T12:58:51.511Z,29.83
2023-02-14T13:01:42.043Z,27.58
2023-02-14T13:04:28.244Z,29.80
2023-02-14T13:07:00.470Z,29.13
2023-02-14T13:09:37.910Z,29.90
2023-02-14T13:12:26.176Z,29.55
2023-02-14T13:15:06.822Z,28.30
2023-02-14T13:17:40.694Z,30.60
2023-02-14T13:20:30.947Z,28.02
2023-02-14T13:23:05.457Z,30.95
2023-02-14T13:25:37.240Z,27.80
2023-02-14T13:28:11.908Z,31.92
2023-02-14T13:30:42.964Z,29.27
2023-02-14T13:33:29.336Z,25.65
2023-02-14T13:36:00.481Z,26.73
2023-02-14T13:38:31.674Z,27.38
2023-02-14T13:41:02.587Z,28.17
2023-02-14T13:46:20.779Z,26.13
2023-02-14T13:49:02.888Z,24.55
2023-02-14T13:51:48.214Z,26.75
2023-02-14T13:54:37.514Z,29.10
2023-02-14T13:57:31.490Z,28.40
2023-02-14T14:00:37.533Z,27.38
2023-02-14T14:03:08.681Z,28.33
2023-02-14T14:05:59.428Z,26.02
2023-02-14T14:08:42.214Z,28.67
2023-02-14T14:11:33.097Z,28.23
2023-02-14T14:14:06.986Z,24.50
2023-02-14T14:16:36.645Z,25.65
2023-02-14T14:19:31.373Z,25.83
2023-02-14T14:24:32.291Z,27.95
2023-02-14T14:27:02.929Z,27.25
2023-02-14T14:29:33.647Z,25.58
2023-02-14T14:32:09.759Z,27.50
2023-02-14T14:34:39.089Z,26.67
2023-02-14T14:37:09.030Z,28.75
2023-02-14T14:39:39.843Z,26.42
2023-02-14T14:44:38.815Z,26.58
2023-02-14T14:47:07.350Z,28.25
2023-02-14T14:49:36.223Z,31.45
2023-02-14T14:52:36.196Z,27.60
2023-02-14T14:55:07.400Z,24.08
2023-02-14T14:57:38.722Z,27.65
2023-02-14T15:00:10.577Z,28.17
2023-02-14T15:02:40.015Z,28.33
2023-02-14T15:05:25.979Z,25.63
2023-02-14T15:07:55.410Z,28.20
2023-02-14T15:10:25.604Z,27.20
2023-02-14T15:13:14.208Z,26.75
2023-02-14T15:15:43.055Z,26.63
2023-02-14T15:18:14.575Z,25.33
2023-02-14T15:20:43.399Z,27.95
2023-02-14T15:23:20.010Z,27.15
2023-02-14T15:25:49.171Z,25.55
2023-02-14T15:28:28.247Z,26.17
2023-02-14T15:31:01.888Z,25.77
2023-02-14T15:33:31.353Z,28.33
2023-02-14T15:36:03.268Z,31.60
2023-02-14T15:38:33.853Z,28.23
2023-02-14T15:41:02.672Z,29.20
2023-02-14T15:43:33.643Z,28.02
2023-02-14T15:46:17.453Z,26.85
2023-02-14T15:48:47.035Z,25.95
2023-02-14T15:51:21.315Z,25.88
2023-02-14T15:53:53.965Z,27.02
2023-02-14T15:56:26.052Z,26.50
2023-02-14T15:59:00.753Z,27.42
2023-02-14T16:01:29.634Z,27.88
2023-02-14T16:04:01.315Z,28.42
2023-02-14T16:06:37.156Z,25.60
2023-02-14T16:09:09.005Z,31.20
2023-02-14T16:11:38.973Z,27.20
2023-02-14T16:14:32.181Z,27.98
2023-02-14T16:17:02.111Z,29.30
2023-02-14T16:19:38.858Z,29.25
2023-02-14T16:22:07.998Z,28.98
2023-02-14T16:24:38.033Z,29.77
2023-02-14T16:27:07.850Z,31.38
2023-02-14T16:29:37.087Z,29.27
2023-02-14T16:32:16.534Z,29.95
2023-02-14T16:34:47.121Z,26.83
2023-02-14T16:37:21.873Z,29.63
2023-02-14T16:39:56.599Z,30.27
2023-02-14T16:42:25.064Z,28.80
2023-02-14T16:44:53.241Z,33.40
2023-02-14T16:47:22.497Z,29.13
2023-02-14T16:49:52.992Z,30.83
2023-02-14T16:52:24.056Z,29.17
2023-02-14T16:54:54.048Z,28.70
2023-02-14T16:57:27.906Z,31.92
2023-02-14T16:59:56.847Z,29.05
2023-02-14T17:02:28.190Z,33.00
2023-02-14T17:04:56.276Z,33.05
2023-02-14T17:07:24.521Z,30.33
2023-02-14T17:09:57.577Z,31.52
2023-02-14T17:12:28.197Z,31.02
2023-02-14T17:15:02.876Z,29.33
2023-02-14T17:17:31.307Z,30.55
2023-02-14T17:19:59.468Z,32.67
2023-02-14T17:22:27.384Z,31.30
2023-02-14T17:24:57.222Z,32.08
2023-02-14T17:27:28.172Z,30.45
2023-02-14T17:29:56.024Z,30.88
2023-02-14T17:32:23.948Z,34.00
2023-02-14T17:34:51.860Z,34.00
2023-02-14T17:37:19.817Z,37.47
2023-02-14T17:39:47.571Z,41.33
2023-02-14T17:42:17.389Z,40.47
2023-02-14T17:44:45.167Z,33.85
2023-02-14T17:47:14.750Z,40.70
2023-02-14T17:49:42.577Z,35.83
2023-02-14T17:52:10.387Z,38.45
2023-02-14T17:54:39.010Z,40.05
2023-02-14T17:57:07.072Z,37.95
2023-02-14T17:59:37.055Z,35.42
2023-02-14T18:02:05.003Z,35.55
2023-02-14T18:04:34.833Z,35.10
2023-02-14T18:07:02.839Z,32.70
2023-02-14T18:09:31.127Z,34.60
2023-02-14T18:11:59.035Z,35.00
2023-02-14T18:14:26.924Z,36.70
2023-02-14T18:16:58.621Z,35.53
2023-02-14T18:19:26.407Z,31.40
2023-02-14T18:21:54.390Z,33.30
2023-02-14T18:24:22.312Z,40.72
2023-02-14T18:26:50.099Z,37.35
2023-02-14T18:29:18.326Z,34.65
2023-02-14T18:31:46.632Z,39.67
2023-02-14T18:34:15.935Z,36.88
2023-02-14T18:36:45.671Z,38.67
2023-02-14T18:39:13.411Z,44.70
2023-02-14T18:41:41.224Z,41.85
2023-02-14T18:44:09.058Z,39.95
2023-02-14T18:46:37.393Z,40.97
2023-02-14T18:49:08.311Z,42.15
2023-02-14T18:51:40.280Z,38.70
2023-02-14T18:54:08.544Z,40.63
2023-02-14T18:56:38.623Z,39.40
2023-02-14T18:59:08.189Z,39.53
2023-02-14T19:01:38.584Z,36.88
2023-02-14T19:04:08.848Z,43.33
2023-02-14T19:06:38.123Z,38.92
2023-02-14T19:09:09.727Z,39.33
2023-02-14T19:11:37.896Z,39.22
2023-02-14T19:14:10.027Z,35.05
2023-02-14T19:16:41.098Z,35.78
2023-02-14T19:19:09.054Z,35.70
2023-02-14T19:21:38.350Z,35.22
2023-02-14T19:24:08.007Z,34.25
2023-02-14T19:26:40.162Z,33.63
2023-02-14T19:29:10.626Z,33.30
2023-02-14T19:31:40.406Z,41.20
2023-02-14T19:34:09.907Z,35.45
2023-02-14T19:36:39.052Z,35.67
2023-02-14T19:39:07.639Z,39.03
2023-02-14T19:41:36.539Z,38.90
2023-02-14T19:44:07.039Z,44.17
2023-02-14T19:46:35.239Z,45.15
2023-02-14T19:49:04.527Z,54.80
2023-02-14T19:51:35.923Z,58.17
2023-02-14T19:54:09.738Z,58.05
2023-02-14T19:56:39.649Z,48.08
2023-02-14T19:59:09.157Z,62.03
2023-02-14T20:01:39.506Z,55.17
2023-02-14T20:04:10.184Z,49.92
2023-02-14T20:06:39.007Z,45.08
2023-02-14T20:09:09.250Z,49.40
2023-02-14T20:11:40.162Z,47.70
2023-02-14T20:14:09.792Z,48.67
2023-02-14T20:16:38.701Z,49.00
2023-02-14T20:19:12.021Z,52.63
2023-02-14T20:21:41.786Z,58.78
2023-02-14T20:24:16.283Z,57.30
2023-02-14T20:26:45.651Z,58.20
2023-02-14T20:29:13.430Z,52.40
2023-02-14T20:31:43.521Z,52.00
2023-02-14T20:34:12.570Z,53.50
2023-02-14T20:36:41.510Z,55.75
2023-02-14T20:39:13.734Z,52.63
2023-02-14T20:41:43.613Z,53.08
2023-02-14T20:44:15.902Z,51.67
2023-02-14T20:46:43.791Z,49.90
2023-02-14T20:49:12.446Z,52.13
2023-02-14T20:51:40.723Z,49.10
2023-02-14T20:54:08.641Z,48.28
2023-02-14T20:56:40.065Z,50.90
2023-02-14T20:59:08.585Z,55.75
2023-02-14T21:01:36.811Z,47.28
2023-02-14T21:04:04.994Z,49.33
2023-02-14T21:06:35.592Z,59.95
2023-02-14T21:09:07.131Z,51.95
2023-02-14T21:11:34.948Z,43.13
2023-02-14T21:14:04.259Z,46.60
2023-02-14T21:16:32.241Z,48.10
2023-02-14T21:19:01.193Z,43.72
2023-02-14T21:21:32.634Z,44.47
2023-02-14T21:24:01.831Z,48.15
2023-02-14T21:26:49.197Z,42.40
2023-02-14T21:29:21.799Z,45.78
2023-02-14T21:31:50.863Z,40.15
2023-02-14T21:34:18.707Z,51.85
2023-02-14T21:36:46.492Z,56.28
2023-02-14T21:39:14.722Z,47.97
2023-02-14T21:41:42.476Z,63.95
2023-02-14T21:44:30.283Z,77.68
2023-02-14T21:46:58.414Z,50.00
2023-02-14T21:49:44.040Z,40.38
2023-02-14T21:52:11.830Z,37.17
2023-02-14T21:54:39.654Z,43.00
2023-02-14T21:57:07.470Z,48.33
2023-02-14T21:59:35.592Z,50.60
2023-02-14T22:02:04.852Z,42.60
2023-02-14T22:04:32.691Z,45.38
2023-02-14T22:07:00.519Z,37.30
2023-02-14T22:09:28.381Z,42.30
2023-02-14T22:11:56.134Z,39.70
2023-02-14T22:14:23.983Z,39.25
2023-02-14T22:16:52.027Z,40.47
2023-02-14T22:19:21.193Z,38.53
2023-02-14T22:21:49.973Z,36.63
2023-02-14T22:24:17.758Z,45.53
2023-02-14T22:26:45.518Z,36.85
2023-02-14T22:29:13.872Z,39.20
2023-02-14T22:31:43.541Z,35.30
2023-02-14T22:34:13.897Z,47.05
2023-02-14T22:36:43.030Z,55.63
2023-02-14T22:39:14.239Z,40.92
2023-02-14T22:41:42.026Z,32.58
2023-02-14T22:44:09.875Z,40.75
2023-02-14T22:46:37.915Z,33.35
2023-02-14T22:49:07.342Z,29.48
2023-02-14T22:51:36.728Z,36.40
2023-02-14T22:54:07.814Z,35.47
2023-02-14T22:56:38.811Z,44.13
2023-02-14T22:59:08.397Z,44.63
2023-02-14T23:01:37.070Z,44.20
2023-02-14T23:04:05.642Z,40.90
2023-02-14T23:06:35.499Z,34.50
2023-02-14T23:09:06.208Z,39.08
2023-02-14T23:11:36.115Z,32.65
2023-02-14T23:14:21.867Z,33.58
2023-02-14T23:17:07.488Z,35.67
2023-02-14T23:19:54.313Z,33.90
2023-02-14T23:22:25.283Z,39.60
2023-02-14T23:24:57.130Z,36.42
2023-02-14T23:27:27.397Z,39.88
2023-02-14T23:30:00.450Z,41.35
2023-02-14T23:32:28.533Z,36.63
2023-02-14T23:34:56.354Z,37.42
2023-02-14T23:37:24.113Z,36.65
2023-02-14T23:39:52.198Z,40.13
2023-02-14T23:42:21.375Z,33.40
2023-02-14T23:44:49.489Z,31.63
2023-02-14T23:47:17.653Z,33.85
2023-02-14T23:49:46.311Z,37.00
2023-02-14T23:52:14.735Z,35.90
2023-02-14T23:54:42.535Z,35.10
2023-02-14T23:57:10.673Z,32.67
2023-02-14T23:59:39.830Z,27.92
